Moss Landing, California
Current Conditions -  °F | °C
As of 11:53 AM on Friday 21 Nov 2014 (Local Time) from KWVI Reporting Station
Few Clouds Few Clouds  
Wind Chill: 62°   Ceiling: Unl
Heat Index: 62°   Visibility: 10mi
Dew Point: 55°   Wind: 5mph
Humidity: 78%   Direction: 110°ESE
Pressure: 30.09"   Gusts: NA
Location:  36.8°N, 121.79°W
Report Text: KWVI 211953Z AUTO 11004KT 10SM FEW008 17/13 A3009 RMK AO2 SLP190 T01670128
Loading
Personal Weather Stations






























Interactive Weather Map New forecast layout! Learn more

10-Day Weather Forecast

Advertisements
Track Severe Weather on mobile